Agar, South Dakota
Current Conditions -  °F | °C
As of 5:53 AM on Thursday 18 Dec 2014 (Local Time) from KPIR Reporting Station
Overcast Overcast  
Wind Chill: 11°   Ceiling: 500
Heat Index: 21°   Visibility: 7mi
Dew Point: 19°   Wind: 8mph
Humidity: 92%   Direction: 130°SE
Pressure: 30.1"   Gusts: NA
Location:  44.84°N, 100.07°W
Report Text: KPIR 181153Z AUTO 13007KT 7SM BKN005 OVC014 M06/M07 A3010 RMK AO2 SLP220 I6004 T10611072 11061 21078 58004
Loading
Personal Weather Stations






























Interactive Weather Map New forecast layout! Learn more

10-Day Weather Forecast

Advertisements
Track Severe Weather on mobile